Time;durP1;ratioP1;P1;durP2;ratioP2;P2;SDS_P1;SDS_P2;PMS_P1;PMS_P2;Temp;Humidity;BMP_temperature;BMP_pressure;BME280_temperature;BME280_humidity;BME280_pressure;Samples;Min_cycle;Max_cycle;Signal;HPM_P1;HPM_P2
2022/07/14 00:00:04;;;;;;;7.95;1.80;;;;;;;;;;1029918;28;20049;-74
2022/07/14 00:00:34;;;;;;;9.40;3.22;;;;;;;;;;1029426;28;20487;-74
2022/07/14 00:01:05;;;;;;;22.67;6.28;;;;;;;;;;1029347;28;20110;-74
2022/07/14 00:01:36;;;;;;;18.27;7.45;;;;;;;;;;1030663;28;20037;-74
2022/07/14 00:02:07;;;;;;;18.48;6.07;;;;;;;;;;1029316;28;20485;-74
2022/07/14 00:02:37;;;;;;;21.63;6.13;;;;;;;;;;1029454;28;20117;-74
2022/07/14 00:03:08;;;;;;;29.15;7.85;;;;;;;;;;1029464;28;20027;-74
2022/07/14 00:03:38;;;;;;;19.63;5.90;;;;;;;;;;1030017;28;20029;-74
2022/07/14 00:04:09;;;;;;;26.25;8.55;;;;;;;;;;1028803;28;20030;-74
2022/07/14 00:04:39;;;;;;;30.85;8.18;;;;;;;;;;1029958;28;20019;-74
2022/07/14 00:05:10;;;;;;;32.05;8.73;;;;;;;;;;1030050;28;20538;-74
2022/07/14 00:05:40;;;;;;;21.60;7.72;;;;;;;;;;1029961;28;20197;-74
2022/07/14 00:06:11;;;;;;;40.88;10.05;;;;;;;;;;1029421;28;20033;-74
2022/07/14 00:06:41;;;;;;;28.80;9.27;;;;;;;;;;1029538;28;20122;-74
2022/07/14 00:07:12;;;;;;;28.67;8.77;;;;;;;;;;1029272;28;20069;-74
2022/07/14 00:07:42;;;;;;;29.67;9.38;;;;;;;;;;1029745;28;20479;-74
2022/07/14 00:08:13;;;;;;;25.20;9.40;;;;;;;;;;1033705;28;20050;-74
2022/07/14 00:08:43;;;;;;;24.92;7.25;;;;;;;;;;1033988;28;20072;-74
2022/07/14 00:09:14;;;;;;;27.10;7.15;;;;;;;;;;1033606;28;20417;-74
2022/07/14 00:09:44;;;;;;;24.60;8.90;;;;;;;;;;1033466;28;20385;-74
2022/07/14 00:10:15;;;;;;;25.23;7.82;;;;;;;;;;1029576;28;20030;-74
2022/07/14 00:10:45;;;;;;;23.27;6.53;;;;;;;;;;1029759;28;20121;-74
2022/07/14 00:11:16;;;;;;;32.05;7.30;;;;;;;;;;1025512;28;20023;-74
2022/07/14 00:11:46;;;;;;;21.15;7.90;;;;;;;;;;1025851;28;20026;-74
2022/07/14 00:12:17;;;;;;;24.75;6.30;;;;;;;;;;1025533;28;20509;-74
2022/07/14 00:12:48;;;;;;;21.70;6.78;;;;;;;;;;1025676;28;20046;-74
2022/07/14 00:13:18;;;;;;;22.40;6.10;;;;;;;;;;1029233;28;20062;-74
2022/07/14 00:13:49;;;;;;;22.73;6.25;;;;;;;;;;1029808;28;20391;-74
2022/07/14 00:14:20;;;;;;;18.85;6.15;;;;;;;;;;1028718;28;20018;-74
2022/07/14 00:14:50;;;;;;;21.80;4.97;;;;;;;;;;1029873;28;20442;-74
2022/07/14 00:15:21;;;;;;;18.02;5.75;;;;;;;;;;1029528;28;20109;-74
2022/07/14 00:15:51;;;;;;;15.70;5.20;;;;;;;;;;1027866;28;20489;-74
2022/07/14 00:16:22;;;;;;;12.55;5.80;;;;;;;;;;1029921;28;20026;-74
2022/07/14 00:16:52;;;;;;;15.25;5.60;;;;;;;;;;1030331;28;20481;-74
2022/07/14 00:17:23;;;;;;;18.13;5.13;;;;;;;;;;1027762;28;20023;-74
2022/07/14 00:17:55;;;;;;;27.67;5.60;;;;;;;;;;1030011;28;20434;-74
2022/07/14 00:18:26;;;;;;;18.38;6.63;;;;;;;;;;1029732;28;20022;-74
2022/07/14 00:18:57;;;;;;;13.18;4.35;;;;;;;;;;1028936;28;20022;-74
2022/07/14 00:19:27;;;;;;;19.52;4.63;;;;;;;;;;1026218;28;20114;-74
2022/07/14 00:19:58;;;;;;;14.02;3.92;;;;;;;;;;1025041;28;20031;-74
2022/07/14 00:20:29;;;;;;;12.57;3.67;;;;;;;;;;1025772;28;20061;-74
2022/07/14 00:20:59;;;;;;;15.55;4.32;;;;;;;;;;1025431;28;20406;-74
2022/07/14 00:21:30;;;;;;;17.90;4.90;;;;;;;;;;1029301;28;20062;-74
2022/07/14 00:22:00;;;;;;;22.15;5.10;;;;;;;;;;1029483;28;20114;-74
2022/07/14 00:22:31;;;;;;;19.83;4.70;;;;;;;;;;1029661;28;20022;-74
2022/07/14 00:23:01;;;;;;;15.73;4.82;;;;;;;;;;1029856;28;20168;-74
2022/07/14 00:23:32;;;;;;;20.73;4.20;;;;;;;;;;1034028;28;20022;-74
2022/07/14 00:24:03;;;;;;;15.13;4.45;;;;;;;;;;1033236;28;20022;-74
2022/07/14 00:24:33;;;;;;;20.15;4.47;;;;;;;;;;1029666;28;20026;-74
2022/07/14 00:25:04;;;;;;;28.60;5.50;;;;;;;;;;1029858;28;20027;-74
2022/07/14 00:25:35;;;;;;;13.32;3.67;;;;;;;;;;1030146;28;20555;-74
2022/07/14 00:26:05;;;;;;;16.33;2.38;;;;;;;;;;1029970;28;20038;-74
2022/07/14 00:26:36;;;;;;;19.42;3.20;;;;;;;;;;1030239;28;20022;-74
2022/07/14 00:27:07;;;;;;;12.68;3.20;;;;;;;;;;1029561;28;20056;-74
2022/07/14 00:27:38;;;;;;;7.55;2.53;;;;;;;;;;1029713;28;20558;-74
2022/07/14 00:28:08;;;;;;;5.00;1.90;;;;;;;;;;1029531;28;20019;-74
2022/07/14 00:28:39;;;;;;;7.57;2.47;;;;;;;;;;1030368;28;20022;-74
2022/07/14 00:29:09;;;;;;;7.32;2.05;;;;;;;;;;1029246;28;20034;-74
2022/07/14 00:29:40;;;;;;;5.85;1.70;;;;;;;;;;1028924;28;20027;-74
2022/07/14 00:30:10;;;;;;;6.70;2.45;;;;;;;;;;1025449;28;20030;-74
2022/07/14 00:30:41;;;;;;;14.05;2.47;;;;;;;;;;1025801;28;20031;-74
2022/07/14 00:31:12;;;;;;;15.07;2.30;;;;;;;;;;1025561;28;20122;-74
2022/07/14 00:31:42;;;;;;;9.93;1.73;;;;;;;;;;1025850;28;20069;-74
2022/07/14 00:32:13;;;;;;;16.63;2.65;;;;;;;;;;1028740;28;20152;-74
2022/07/14 00:32:43;;;;;;;16.45;2.97;;;;;;;;;;1030174;28;20068;-74
2022/07/14 00:33:14;;;;;;;11.77;2.92;;;;;;;;;;1029692;28;20513;-73
2022/07/14 00:33:45;;;;;;;10.35;3.00;;;;;;;;;;1029286;28;20033;-73
2022/07/14 00:34:15;;;;;;;6.63;3.13;;;;;;;;;;1029200;28;20030;-74
2022/07/14 00:34:46;;;;;;;14.18;2.65;;;;;;;;;;1029823;28;20027;-74
2022/07/14 00:35:16;;;;;;;11.38;2.85;;;;;;;;;;1029619;28;20062;-74
2022/07/14 00:35:47;;;;;;;6.07;2.97;;;;;;;;;;1030182;28;20081;-74
2022/07/14 00:36:17;;;;;;;9.45;3.25;;;;;;;;;;1029718;28;20544;-74
2022/07/14 00:36:48;;;;;;;12.77;4.30;;;;;;;;;;1029756;28;20386;-74
2022/07/14 00:37:18;;;;;;;21.90;5.00;;;;;;;;;;1029029;28;20023;-74
2022/07/14 00:37:49;;;;;;;10.90;3.63;;;;;;;;;;1025623;28;20027;-74
2022/07/14 00:38:19;;;;;;;8.13;2.70;;;;;;;;;;1025658;28;20540;-74
2022/07/14 00:38:50;;;;;;;16.15;4.75;;;;;;;;;;1025939;28;20023;-74
2022/07/14 00:39:20;;;;;;;9.13;6.47;;;;;;;;;;1029402;28;20022;-74
2022/07/14 00:39:57;;;;;;;11.10;2.25;;;;;;;;;;1029618;28;20029;-74
2022/07/14 00:40:27;;;;;;;11.77;2.88;;;;;;;;;;1028882;28;20036;-74
2022/07/14 00:40:58;;;;;;;11.90;2.95;;;;;;;;;;1029570;28;20033;-74
2022/07/14 00:41:29;;;;;;;7.47;3.72;;;;;;;;;;1029582;28;20506;-74
2022/07/14 00:41:59;;;;;;;7.13;3.80;;;;;;;;;;1029519;28;20022;-74
2022/07/14 00:42:37;;;;;;;7.18;3.00;;;;;;;;;;1029772;28;20030;-74
2022/07/14 00:43:07;;;;;;;10.82;3.33;;;;;;;;;;1025523;28;20182;-74
2022/07/14 00:43:38;;;;;;;12.02;3.83;;;;;;;;;;1022400;28;20038;-74
2022/07/14 00:44:09;;;;;;;17.73;3.17;;;;;;;;;;1024752;28;20376;-74
2022/07/14 00:44:39;;;;;;;7.25;2.80;;;;;;;;;;1025850;28;20023;-73
2022/07/14 00:45:12;;;;;;;15.38;5.45;;;;;;;;;;1029239;28;20084;-74
2022/07/14 00:45:42;;;;;;;22.23;6.10;;;;;;;;;;1029316;28;20053;-74
2022/07/14 00:46:13;;;;;;;16.15;6.10;;;;;;;;;;1029041;28;20026;-74
2022/07/14 00:46:43;;;;;;;24.08;8.10;;;;;;;;;;1029594;28;20499;-74
2022/07/14 00:47:14;;;;;;;23.42;6.90;;;;;;;;;;1029622;28;20118;-74
2022/07/14 00:47:46;;;;;;;24.95;6.63;;;;;;;;;;1030043;28;20023;-74
2022/07/14 00:48:17;;;;;;;10.88;4.93;;;;;;;;;;1029835;28;20030;-74
2022/07/14 00:48:47;;;;;;;13.02;4.82;;;;;;;;;;1029983;28;20462;-74
2022/07/14 00:49:34;;;;;;;11.10;3.55;;;;;;;;;;1028983;28;20077;-74
2022/07/14 00:50:06;;;;;;;9.00;3.83;;;;;;;;;;1025125;28;20029;-74
2022/07/14 00:50:41;;;;;;;6.18;2.70;;;;;;;;;;1025479;28;20023;-74
2022/07/14 00:51:11;;;;;;;5.95;2.13;;;;;;;;;;1027643;28;20030;-74
2022/07/14 00:51:42;;;;;;;6.18;2.40;;;;;;;;;;1029655;28;20080;-74
2022/07/14 00:52:12;;;;;;;6.80;2.40;;;;;;;;;;1029382;28;20129;-74
2022/07/14 00:52:43;;;;;;;7.00;2.28;;;;;;;;;;1029677;28;20448;-74
2022/07/14 00:53:14;;;;;;;8.82;3.30;;;;;;;;;;1028357;28;20081;-74
2022/07/14 00:53:50;;;;;;;19.63;6.90;;;;;;;;;;1029635;28;20034;-74
2022/07/14 00:54:26;;;;;;;19.70;7.07;;;;;;;;;;1028695;28;20029;-74
2022/07/14 00:54:57;;;;;;;21.23;8.02;;;;;;;;;;1029752;28;20029;-74
2022/07/14 00:55:27;;;;;;;20.45;6.20;;;;;;;;;;1029718;28;20383;-74
2022/07/14 00:55:58;;;;;;;16.50;6.53;;;;;;;;;;1029418;28;20033;-74
2022/07/14 00:56:29;;;;;;;7.72;2.25;;;;;;;;;;1028642;28;20027;-74
2022/07/14 00:56:59;;;;;;;20.38;4.80;;;;;;;;;;1029597;28;20089;-74
2022/07/14 00:57:30;;;;;;;24.10;6.53;;;;;;;;;;1029622;28;20038;-74
2022/07/14 00:58:00;;;;;;;12.93;5.68;;;;;;;;;;1029645;28;20169;-74
2022/07/14 00:58:31;;;;;;;17.70;6.85;;;;;;;;;;1029788;28;20068;-74
2022/07/14 00:59:01;;;;;;;25.52;5.93;;;;;;;;;;1029809;28;20110;-74
2022/07/14 00:59:32;;;;;;;21.75;6.07;;;;;;;;;;1029445;28;20026;-74
2022/07/14 01:00:04;;;;;;;17.48;5.43;;;;;;;;;;1029519;28;20033;-74
2022/07/14 01:00:35;;;;;;;13.63;5.38;;;;;;;;;;1028699;28;20034;-74
2022/07/14 01:01:05;;;;;;;13.23;5.10;;;;;;;;;;1029012;28;20550;-74
2022/07/14 01:01:36;;;;;;;13.40;4.70;;;;;;;;;;1029413;28;20026;-74
2022/07/14 01:02:06;;;;;;;11.25;5.20;;;;;;;;;;1029287;28;20045;-74
2022/07/14 01:02:37;;;;;;;12.32;5.55;;;;;;;;;;1029010;28;20049;-74
2022/07/14 01:03:08;;;;;;;19.08;5.88;;;;;;;;;;1029882;28;20022;-74
2022/07/14 01:03:38;;;;;;;13.80;5.00;;;;;;;;;;1029685;28;20024;-74
2022/07/14 01:04:09;;;;;;;19.20;5.47;;;;;;;;;;1028972;28;20022;-74
2022/07/14 01:04:39;;;;;;;9.65;4.65;;;;;;;;;;1029349;28;20027;-74
2022/07/14 01:05:10;;;;;;;19.60;4.53;;;;;;;;;;1028222;28;20041;-74
2022/07/14 01:05:41;;;;;;;16.90;4.85;;;;;;;;;;1028928;28;20099;-74
2022/07/14 01:06:11;;;;;;;12.60;5.07;;;;;;;;;;1029404;28;20418;-74
2022/07/14 01:06:42;;;;;;;13.25;5.55;;;;;;;;;;1028754;28;20032;-74
2022/07/14 01:07:12;;;;;;;18.73;4.50;;;;;;;;;;1029131;28;20023;-74
2022/07/14 01:07:43;;;;;;;10.50;4.80;;;;;;;;;;1029402;28;20032;-74
2022/07/14 01:08:13;;;;;;;13.07;5.07;;;;;;;;;;1028445;28;20030;-74
2022/07/14 01:08:44;;;;;;;13.68;5.88;;;;;;;;;;1029658;28;21127;-74
2022/07/14 01:09:15;;;;;;;22.80;5.13;;;;;;;;;;1029543;28;20030;-74
2022/07/14 01:09:45;;;;;;;12.55;4.43;;;;;;;;;;1028499;28;20033;-74
2022/07/14 01:10:16;;;;;;;12.68;3.95;;;;;;;;;;1028698;28;20028;-74
2022/07/14 01:10:46;;;;;;;15.85;4.28;;;;;;;;;;1029697;28;20386;-74
2022/07/14 01:11:17;;;;;;;11.18;4.50;;;;;;;;;;1029703;28;20023;-74
2022/07/14 01:11:47;;;;;;;7.50;3.72;;;;;;;;;;1029428;28;20497;-74
2022/07/14 01:12:18;;;;;;;19.40;4.10;;;;;;;;;;1029624;28;20033;-74
2022/07/14 01:12:49;;;;;;;20.55;5.28;;;;;;;;;;1029615;28;20034;-74
2022/07/14 01:13:19;;;;;;;18.58;4.40;;;;;;;;;;1027828;28;20023;-74
2022/07/14 01:13:50;;;;;;;12.00;5.20;;;;;;;;;;1028080;28;20038;-74
2022/07/14 01:14:20;;;;;;;7.47;4.30;;;;;;;;;;1028899;28;20481;-74
2022/07/14 01:14:51;;;;;;;9.73;4.25;;;;;;;;;;1028846;28;20032;-74
2022/07/14 01:15:21;;;;;;;10.43;4.75;;;;;;;;;;1029749;28;20026;-74
2022/07/14 01:15:52;;;;;;;14.57;5.18;;;;;;;;;;1028704;28;20033;-74
2022/07/14 01:16:22;;;;;;;17.00;4.97;;;;;;;;;;1029105;28;20042;-74
2022/07/14 01:16:54;;;;;;;19.05;4.57;;;;;;;;;;1029638;28;20023;-74
2022/07/14 01:17:25;;;;;;;10.80;4.43;;;;;;;;;;1029518;28;20388;-74
2022/07/14 01:17:56;;;;;;;11.20;5.53;;;;;;;;;;1029023;28;20019;-74
2022/07/14 01:18:26;;;;;;;14.43;6.63;;;;;;;;;;1025665;28;20022;-74
2022/07/14 01:18:57;;;;;;;14.05;4.55;;;;;;;;;;1020808;29;20023;-74
2022/07/14 01:19:27;;;;;;;18.08;4.68;;;;;;;;;;1022675;28;20123;-75
2022/07/14 01:19:58;;;;;;;10.30;5.18;;;;;;;;;;1026320;28;20027;-75
2022/07/14 01:20:28;;;;;;;18.88;5.60;;;;;;;;;;1031456;28;20029;-75
2022/07/14 01:20:59;;;;;;;21.17;6.32;;;;;;;;;;1029433;28;20030;-74
2022/07/14 01:21:29;;;;;;;14.85;5.78;;;;;;;;;;1028931;28;20454;-74
2022/07/14 01:22:00;;;;;;;18.10;5.78;;;;;;;;;;1029178;28;20019;-74
2022/07/14 01:22:30;;;;;;;15.85;5.47;;;;;;;;;;1029588;28;20207;-74
2022/07/14 01:23:01;;;;;;;11.10;4.75;;;;;;;;;;1029576;28;20025;-74
2022/07/14 01:23:32;;;;;;;8.63;5.75;;;;;;;;;;1028732;28;20022;-74
2022/07/14 01:24:02;;;;;;;30.55;6.07;;;;;;;;;;1029505;28;20105;-74
2022/07/14 01:24:33;;;;;;;11.60;4.57;;;;;;;;;;1029569;28;20466;-74
2022/07/14 01:25:06;;;;;;;11.60;4.05;;;;;;;;;;1029558;28;20053;-74
2022/07/14 01:25:37;;;;;;;29.83;4.65;;;;;;;;;;1028818;28;20018;-74
2022/07/14 01:26:07;;;;;;;18.58;5.32;;;;;;;;;;1027915;28;20326;-74
2022/07/14 01:26:38;;;;;;;12.77;4.38;;;;;;;;;;1030033;28;20026;-74
2022/07/14 01:27:08;;;;;;;17.27;6.13;;;;;;;;;;1028953;28;20554;-74
2022/07/14 01:27:39;;;;;;;9.63;4.72;;;;;;;;;;1029477;28;20032;-74
2022/07/14 01:28:10;;;;;;;12.35;4.38;;;;;;;;;;1028986;28;20082;-74
2022/07/14 01:28:40;;;;;;;20.95;5.28;;;;;;;;;;1029800;28;20493;-74
2022/07/14 01:29:11;;;;;;;18.27;5.38;;;;;;;;;;1028131;28;20022;-74
2022/07/14 01:29:41;;;;;;;13.63;4.35;;;;;;;;;;1028772;28;20109;-74
2022/07/14 01:30:12;;;;;;;12.38;4.65;;;;;;;;;;1029193;28;20391;-74
2022/07/14 01:30:42;;;;;;;12.75;3.80;;;;;;;;;;1030420;28;20025;-74
2022/07/14 01:31:13;;;;;;;15.88;6.15;;;;;;;;;;1029267;28;20019;-74
2022/07/14 01:31:44;;;;;;;18.25;3.60;;;;;;;;;;1029567;28;20418;-74
2022/07/14 01:32:14;;;;;;;11.50;4.38;;;;;;;;;;1026931;28;20045;-74
2022/07/14 01:32:45;;;;;;;14.80;6.10;;;;;;;;;;1027801;28;21588;-74
2022/07/14 01:33:15;;;;;;;24.40;4.50;;;;;;;;;;1026527;28;21108;-74
2022/07/14 01:33:46;;;;;;;23.80;4.05;;;;;;;;;;1026327;28;20129;-74
2022/07/14 01:34:17;;;;;;;7.38;3.50;;;;;;;;;;1025063;28;20531;-75
2022/07/14 01:34:48;;;;;;;12.93;4.32;;;;;;;;;;1029105;28;20026;-74
2022/07/14 01:35:18;;;;;;;15.48;5.03;;;;;;;;;;1027117;28;20046;-74
2022/07/14 01:35:49;;;;;;;9.30;4.07;;;;;;;;;;1027084;28;21469;-74
2022/07/14 01:36:19;;;;;;;12.25;4.70;;;;;;;;;;1028316;28;20566;-75
2022/07/14 01:36:52;;;;;;;18.15;4.07;;;;;;;;;;1027158;28;20030;-74
2022/07/14 01:37:22;;;;;;;12.30;3.22;;;;;;;;;;1028469;28;20121;-74
2022/07/14 01:37:53;;;;;;;15.57;3.45;;;;;;;;;;1024948;28;20015;-74
2022/07/14 01:38:23;;;;;;;15.52;3.85;;;;;;;;;;1024563;28;20057;-73
2022/07/14 01:38:54;;;;;;;10.68;3.88;;;;;;;;;;1025665;28;20023;-74
2022/07/14 01:39:24;;;;;;;11.18;3.60;;;;;;;;;;1023509;28;20031;-76
2022/07/14 01:39:55;;;;;;;15.35;4.30;;;;;;;;;;1029292;28;20027;-75
2022/07/14 01:40:25;;;;;;;17.75;3.58;;;;;;;;;;1027411;28;20034;-76
2022/07/14 01:40:56;;;;;;;12.70;3.63;;;;;;;;;;1028453;28;20022;-75
2022/07/14 01:41:27;;;;;;;9.63;3.75;;;;;;;;;;1023533;28;21814;-75
2022/07/14 01:41:58;;;;;;;11.95;5.45;;;;;;;;;;1023268;29;20428;-75
2022/07/14 01:42:28;;;;;;;11.00;3.38;;;;;;;;;;1017464;29;20028;-76
2022/07/14 01:42:59;;;;;;;8.68;2.70;;;;;;;;;;1023571;28;20030;-75
2022/07/14 01:43:29;;;;;;;7.30;2.30;;;;;;;;;;1023762;28;20031;-75
2022/07/14 01:44:00;;;;;;;5.50;2.65;;;;;;;;;;1028246;28;20030;-75
2022/07/14 01:44:31;;;;;;;10.20;3.75;;;;;;;;;;1033219;28;20030;-75
2022/07/14 01:45:02;;;;;;;11.65;3.33;;;;;;;;;;1032631;28;20014;-74
2022/07/14 01:45:34;;;;;;;13.27;3.15;;;;;;;;;;1031383;28;20057;-74
2022/07/14 01:46:05;;;;;;;19.90;4.03;;;;;;;;;;1029620;28;20501;-74
2022/07/14 01:46:37;;;;;;;9.23;3.92;;;;;;;;;;1029269;28;20035;-74
2022/07/14 01:47:08;;;;;;;8.88;2.95;;;;;;;;;;1028687;28;20430;-74
2022/07/14 01:47:38;;;;;;;14.10;2.97;;;;;;;;;;1028086;28;20026;-74
2022/07/14 01:48:09;;;;;;;18.77;3.53;;;;;;;;;;1027451;28;20030;-73
2022/07/14 01:48:39;;;;;;;14.07;2.95;;;;;;;;;;1027854;28;20034;-74
2022/07/14 01:49:10;;;;;;;11.50;3.08;;;;;;;;;;1027488;28;20035;-74
2022/07/14 01:49:40;;;;;;;20.13;3.47;;;;;;;;;;1029752;28;20019;-74
2022/07/14 01:50:11;;;;;;;8.70;2.85;;;;;;;;;;1028018;28;20469;-74
2022/07/14 01:50:41;;;;;;;9.50;2.67;;;;;;;;;;1029993;28;20486;-75
2022/07/14 01:51:12;;;;;;;6.03;2.00;;;;;;;;;;1026911;28;20511;-74
2022/07/14 01:51:42;;;;;;;16.00;2.83;;;;;;;;;;1027303;28;20484;-74
2022/07/14 01:52:13;;;;;;;7.75;1.88;;;;;;;;;;1027038;28;20030;-74
2022/07/14 01:52:44;;;;;;;12.52;2.45;;;;;;;;;;1027472;28;20054;-74
2022/07/14 01:53:14;;;;;;;9.00;2.83;;;;;;;;;;1024435;28;20030;-74
2022/07/14 01:53:45;;;;;;;9.07;3.10;;;;;;;;;;1028306;28;20065;-74
2022/07/14 01:54:15;;;;;;;10.65;3.03;;;;;;;;;;1027945;28;20390;-74
2022/07/14 01:54:46;;;;;;;4.97;2.58;;;;;;;;;;1029658;28;20387;-75
2022/07/14 01:55:16;;;;;;;8.75;2.78;;;;;;;;;;1026766;28;20026;-75
2022/07/14 01:55:47;;;;;;;8.43;2.75;;;;;;;;;;1026690;28;20030;-74
2022/07/14 01:56:17;;;;;;;12.70;2.50;;;;;;;;;;1027114;28;20672;-75
2022/07/14 01:56:48;;;;;;;6.28;2.35;;;;;;;;;;1026308;28;20027;-76
2022/07/14 01:57:18;;;;;;;6.93;2.58;;;;;;;;;;1025153;28;20045;-75
2022/07/14 01:57:49;;;;;;;10.45;2.58;;;;;;;;;;1027866;28;20019;-74
2022/07/14 01:58:20;;;;;;;8.30;2.03;;;;;;;;;;1030124;28;20037;-74
2022/07/14 01:58:50;;;;;;;13.90;2.67;;;;;;;;;;1029267;28;20019;-74
2022/07/14 01:59:21;;;;;;;5.53;2.40;;;;;;;;;;1026284;28;20070;-75
2022/07/14 01:59:51;;;;;;;6.80;2.50;;;;;;;;;;1028454;28;20089;-75
2022/07/14 02:00:21;;;;;;;10.70;3.03;;;;;;;;;;1026878;28;20465;-74
2022/07/14 02:01:41;;;;;;;10.20;2.35;;;;;;;;;;1029323;28;20030;-74
2022/07/14 02:02:13;;;;;;;5.55;2.08;;;;;;;;;;1026342;28;20027;-74
2022/07/14 02:02:43;;;;;;;7.63;2.30;;;;;;;;;;1028033;28;20027;-74
2022/07/14 02:03:14;;;;;;;10.52;2.08;;;;;;;;;;1024791;28;20014;-74
2022/07/14 02:03:45;;;;;;;5.25;1.98;;;;;;;;;;1025334;28;20203;-74
2022/07/14 02:04:17;;;;;;;7.40;2.17;;;;;;;;;;1022643;28;20546;-74
2022/07/14 02:04:48;;;;;;;11.18;1.65;;;;;;;;;;1030384;28;20097;-75
2022/07/14 02:05:18;;;;;;;7.40;1.65;;;;;;;;;;1027315;28;20803;-74
2022/07/14 02:05:48;;;;;;;7.82;1.88;;;;;;;;;;1021292;28;20039;-74
2022/07/14 02:06:19;;;;;;;11.05;2.65;;;;;;;;;;1027105;28;20433;-74
2022/07/14 02:06:51;;;;;;;9.68;2.58;;;;;;;;;;1027552;28;20383;-75
2022/07/14 02:07:22;;;;;;;4.55;1.42;;;;;;;;;;1026163;28;20037;-74
2022/07/14 02:07:53;;;;;;;18.88;3.38;;;;;;;;;;1029377;28;20559;-75
2022/07/14 02:08:23;;;;;;;10.55;2.53;;;;;;;;;;1027859;28;20035;-75
2022/07/14 02:08:54;;;;;;;8.25;2.30;;;;;;;;;;1029564;28;20026;-74
2022/07/14 02:12:10;;;;;;;7.28;2.50;;;;;;;;;;1027023;28;20027;-74
2022/07/14 02:12:11;;;;;;;4.47;1.50;;;;;;;;;;1028668;28;20026;-75
2022/07/14 02:12:41;;;;;;;4.68;2.03;;;;;;;;;;1030108;28;20078;-75
2022/07/14 02:13:11;;;;;;;2.33;1.17;;;;;;;;;;1026638;28;20037;-75
2022/07/14 02:13:42;;;;;;;6.20;2.08;;;;;;;;;;1031025;28;20046;-74
2022/07/14 02:14:12;;;;;;;2.33;1.50;;;;;;;;;;1031781;28;20029;-75
2022/07/14 02:14:43;;;;;;;4.32;2.80;;;;;;;;;;1032518;28;20076;-76
2022/07/14 02:15:13;;;;;;;4.45;2.15;;;;;;;;;;1031883;28;20022;-75
2022/07/14 02:15:44;;;;;;;7.15;2.00;;;;;;;;;;1030267;28;20102;-74
2022/07/14 02:16:14;;;;;;;3.70;1.48;;;;;;;;;;1026483;28;20023;-74
2022/07/14 02:16:45;;;;;;;4.82;1.85;;;;;;;;;;1028467;28;20026;-75
2022/07/14 02:17:16;;;;;;;4.72;1.70;;;;;;;;;;1029650;28;20042;-76
2022/07/14 02:17:46;;;;;;;7.00;1.45;;;;;;;;;;1030026;28;20076;-74
2022/07/14 02:18:17;;;;;;;2.60;1.15;;;;;;;;;;1029431;28;20137;-75
2022/07/14 02:18:48;;;;;;;4.45;1.55;;;;;;;;;;1028257;28;20022;-74
2022/07/14 02:19:18;;;;;;;7.63;2.08;;;;;;;;;;1027631;28;20032;-74
2022/07/14 02:19:49;;;;;;;5.65;2.00;;;;;;;;;;1027780;28;20030;-75
2022/07/14 02:20:19;;;;;;;5.68;1.25;;;;;;;;;;1028507;28;20436;-74
2022/07/14 02:20:50;;;;;;;5.95;1.67;;;;;;;;;;1027796;28;20106;-74
2022/07/14 02:21:20;;;;;;;3.95;1.55;;;;;;;;;;1028812;28;20141;-74
2022/07/14 02:21:51;;;;;;;3.80;1.58;;;;;;;;;;1030238;28;20027;-75
2022/07/14 02:22:22;;;;;;;5.28;1.75;;;;;;;;;;1028844;28;20046;-75
2022/07/14 02:22:52;;;;;;;3.45;1.33;;;;;;;;;;1027079;28;20027;-76
2022/07/14 02:23:23;;;;;;;2.90;1.23;;;;;;;;;;1026944;28;20022;-75
2022/07/14 02:23:54;;;;;;;13.02;2.42;;;;;;;;;;1026815;28;20129;-75
2022/07/14 02:24:25;;;;;;;2.60;1.38;;;;;;;;;;1026385;28;20569;-74
2022/07/14 02:24:55;;;;;;;5.30;0.93;;;;;;;;;;1029034;28;20018;-74
2022/07/14 02:25:27;;;;;;;8.93;2.20;;;;;;;;;;1029573;28;20493;-74
2022/07/14 02:25:58;;;;;;;4.45;1.77;;;;;;;;;;1029532;28;20066;-75
2022/07/14 02:26:28;;;;;;;9.18;1.50;;;;;;;;;;1029962;28;20027;-75
2022/07/14 02:27:00;;;;;;;3.08;1.27;;;;;;;;;;1030412;28;20022;-74
2022/07/14 02:27:30;;;;;;;2.63;1.38;;;;;;;;;;1029787;28;20178;-74
2022/07/14 02:28:01;;;;;;;10.70;1.75;;;;;;;;;;1028714;28;20093;-73
2022/07/14 02:28:31;;;;;;;10.50;2.20;;;;;;;;;;1029809;28;20109;-74
2022/07/14 02:29:04;;;;;;;11.48;1.55;;;;;;;;;;1028868;28;20503;-76
2022/07/14 02:29:35;;;;;;;4.35;1.45;;;;;;;;;;1028146;28;20402;-76
2022/07/14 02:30:06;;;;;;;2.33;1.05;;;;;;;;;;1029266;28;20030;-75
2022/07/14 02:30:36;;;;;;;12.70;1.65;;;;;;;;;;1033150;28;20030;-74
2022/07/14 02:31:09;;;;;;;11.73;1.48;;;;;;;;;;1032873;28;20026;-74
2022/07/14 02:31:39;;;;;;;4.00;1.35;;;;;;;;;;1032274;28;20523;-76
2022/07/14 02:32:10;;;;;;;9.63;1.08;;;;;;;;;;1028191;28;20038;-74
2022/07/14 02:32:41;;;;;;;2.42;0.95;;;;;;;;;;1027835;28;20022;-76
2022/07/14 02:33:11;;;;;;;12.95;2.13;;;;;;;;;;1023669;28;20097;-75
2022/07/14 02:33:42;;;;;;;3.10;0.80;;;;;;;;;;1025944;28;20065;-74
2022/07/14 02:34:13;;;;;;;3.65;1.35;;;;;;;;;;1024105;28;21046;-74
2022/07/14 02:34:43;;;;;;;5.30;1.00;;;;;;;;;;1028770;28;20417;-74
2022/07/14 02:35:14;;;;;;;1.95;0.98;;;;;;;;;;1025555;28;20550;-75
2022/07/14 02:35:44;;;;;;;4.57;1.73;;;;;;;;;;1026074;28;20027;-74
2022/07/14 02:36:15;;;;;;;6.43;1.23;;;;;;;;;;1026405;28;20510;-75
2022/07/14 02:36:47;;;;;;;6.68;0.95;;;;;;;;;;1026881;28;20034;-75
2022/07/14 02:37:17;;;;;;;4.97;1.33;;;;;;;;;;1027666;28;20027;-74
2022/07/14 02:37:48;;;;;;;10.07;0.95;;;;;;;;;;1028219;28;20038;-75
2022/07/14 02:38:20;;;;;;;4.38;1.17;;;;;;;;;;1025093;28;20083;-75
2022/07/14 02:38:51;;;;;;;3.05;1.27;;;;;;;;;;1023118;28;20027;-75
2022/07/14 02:39:22;;;;;;;11.57;1.60;;;;;;;;;;1028120;28;20630;-74
2022/07/14 02:39:52;;;;;;;5.85;1.88;;;;;;;;;;1023857;28;20045;-75
2022/07/14 02:40:23;;;;;;;8.60;1.95;;;;;;;;;;1021038;28;20499;-75
2022/07/14 02:40:53;;;;;;;4.40;1.33;;;;;;;;;;1026690;28;20574;-76
2022/07/14 02:41:24;;;;;;;7.45;1.10;;;;;;;;;;1026954;28;20463;-75
2022/07/14 02:41:56;;;;;;;9.35;1.58;;;;;;;;;;1028221;28;20435;-75
2022/07/14 02:42:26;;;;;;;9.10;1.70;;;;;;;;;;1027019;28;20026;-75
2022/07/14 02:42:57;;;;;;;7.30;2.47;;;;;;;;;;1027054;28;20115;-76
2022/07/14 02:43:27;;;;;;;7.10;1.75;;;;;;;;;;1028544;28;20018;-75
2022/07/14 02:43:58;;;;;;;5.47;1.73;;;;;;;;;;1030064;28;20121;-74
2022/07/14 02:44:28;;;;;;;14.18;2.00;;;;;;;;;;1029628;28;20037;-74
2022/07/14 02:44:59;;;;;;;9.43;1.63;;;;;;;;;;1030546;28;20031;-74
2022/07/14 02:45:29;;;;;;;13.05;1.92;;;;;;;;;;1027917;28;20124;-75
2022/07/14 02:46:00;;;;;;;7.05;1.90;;;;;;;;;;1026102;28;20515;-74
2022/07/14 02:46:31;;;;;;;3.15;1.63;;;;;;;;;;1028503;28;20117;-74
2022/07/14 02:47:01;;;;;;;8.10;1.90;;;;;;;;;;1027415;28;20066;-74
2022/07/14 02:47:32;;;;;;;9.18;1.75;;;;;;;;;;1029095;28;20027;-75
2022/07/14 02:48:03;;;;;;;8.70;1.77;;;;;;;;;;1029227;28;20018;-75
2022/07/14 02:48:33;;;;;;;9.50;2.85;;;;;;;;;;1025506;28;20031;-74
2022/07/14 02:49:04;;;;;;;7.75;1.80;;;;;;;;;;1027343;28;20144;-74
2022/07/14 02:49:35;;;;;;;5.65;1.88;;;;;;;;;;1028576;28;20038;-74
2022/07/14 02:50:06;;;;;;;7.85;1.70;;;;;;;;;;1028077;28;20027;-76
2022/07/14 02:50:36;;;;;;;10.70;1.95;;;;;;;;;;1028313;28;20034;-75
2022/07/14 02:51:07;;;;;;;12.82;1.88;;;;;;;;;;1028396;28;20038;-77
2022/07/14 02:51:38;;;;;;;4.25;1.30;;;;;;;;;;1028974;28;20030;-75
2022/07/14 02:52:08;;;;;;;6.45;1.70;;;;;;;;;;1026518;28;20018;-75
2022/07/14 02:52:39;;;;;;;6.07;1.90;;;;;;;;;;1028923;28;20053;-75
2022/07/14 02:53:10;;;;;;;6.25;1.75;;;;;;;;;;1026539;28;20019;-75
2022/07/14 02:53:40;;;;;;;10.10;2.10;;;;;;;;;;1029240;28;20063;-74
2022/07/14 02:54:11;;;;;;;8.38;2.47;;;;;;;;;;1029997;28;20054;-74
2022/07/14 02:54:41;;;;;;;8.88;1.63;;;;;;;;;;1024030;28;20030;-75
2022/07/14 02:55:12;;;;;;;6.03;1.50;;;;;;;;;;1026846;28;20521;-75
2022/07/14 02:55:43;;;;;;;14.88;1.95;;;;;;;;;;1028499;28;20101;-74
2022/07/14 02:56:13;;;;;;;10.80;2.75;;;;;;;;;;1026291;28;20010;-74
2022/07/14 02:56:44;;;;;;;9.20;1.92;;;;;;;;;;1030295;28;20390;-75
2022/07/14 02:57:15;;;;;;;9.10;2.95;;;;;;;;;;1025290;28;20106;-75
2022/07/14 02:57:46;;;;;;;17.55;2.85;;;;;;;;;;1030303;28;20029;-74
2022/07/14 02:58:18;;;;;;;16.42;2.42;;;;;;;;;;1027476;28;20070;-75
2022/07/14 02:58:48;;;;;;;6.95;2.08;;;;;;;;;;1025245;28;20023;-75
2022/07/14 02:59:19;;;;;;;8.73;2.22;;;;;;;;;;1025017;28;20402;-75
2022/07/14 02:59:50;;;;;;;11.07;2.60;;;;;;;;;;1028659;28;20383;-75
2022/07/14 03:00:21;;;;;;;7.63;2.25;;;;;;;;;;1027341;28;20403;-76
2022/07/14 03:00:51;;;;;;;9.48;1.75;;;;;;;;;;1023212;28;20050;-76
2022/07/14 03:01:22;;;;;;;8.88;1.90;;;;;;;;;;1025360;28;20035;-75
2022/07/14 03:01:52;;;;;;;10.20;2.10;;;;;;;;;;1025519;28;20016;-75
2022/07/14 03:02:23;;;;;;;9.85;2.35;;;;;;;;;;1027954;28;20026;-74
2022/07/14 03:02:54;;;;;;;3.38;1.88;;;;;;;;;;1027572;28;20030;-76
2022/07/14 03:04:51;;;;;;;16.20;4.13;;;;;;;;;;1031454;28;20367;-74
2022/07/14 03:05:21;;;;;;;11.13;4.68;;;;;;;;;;1032221;28;20033;-73
2022/07/14 03:05:52;;;;;;;14.75;4.68;;;;;;;;;;1032491;28;20386;-73
2022/07/14 03:06:22;;;;;;;19.95;6.43;;;;;;;;;;1033767;28;20034;-73
2022/07/14 03:06:53;;;;;;;25.67;7.43;;;;;;;;;;1033133;28;20063;-73
2022/07/14 03:07:23;;;;;;;18.42;7.25;;;;;;;;;;1033648;28;20561;-73